createdAt,value
2022-12-29T00:00:00.760Z,10.06
2022-12-29T00:05:03.333Z,10.06
2022-12-29T00:10:00.889Z,9.81
2022-12-29T00:15:00.751Z,9.29
2022-12-29T00:20:00.745Z,9.29
2022-12-29T00:25:04.060Z,9.29
2022-12-29T00:30:00.706Z,9.27
2022-12-29T00:35:00.797Z,9.27
2022-12-29T00:40:04.766Z,9.27
2022-12-29T00:45:00.719Z,9.7
2022-12-29T00:50:00.762Z,9.7
2022-12-29T00:55:00.959Z,9.65
2022-12-29T01:00:00.737Z,9.72
2022-12-29T01:05:03.188Z,10.09
2022-12-29T01:10:00.983Z,10.12
2022-12-29T01:15:00.723Z,10.26
2022-12-29T01:20:00.698Z,9.74
2022-12-29T01:25:00.885Z,9.74
2022-12-29T01:30:00.733Z,9.65
2022-12-29T01:35:00.857Z,10.13
2022-12-29T01:40:04.976Z,10.39
2022-12-29T01:45:01.001Z,10.39
2022-12-29T01:50:00.683Z,10.03
2022-12-29T01:55:00.947Z,9.86
2022-12-29T02:00:00.759Z,9.35
2022-12-29T02:05:04.797Z,9.35
2022-12-29T02:10:00.960Z,9.35
2022-12-29T02:15:00.819Z,9.35
2022-12-29T02:20:00.711Z,9.35
2022-12-29T02:25:00.906Z,9.35
2022-12-29T02:30:00.693Z,9.35
2022-12-29T02:35:00.723Z,9.88
2022-12-29T02:45:00.917Z,9.88
2022-12-29T02:50:00.731Z,9.7
2022-12-29T02:55:00.741Z,9.85
2022-12-29T03:00:04.875Z,9.85
2022-12-29T03:05:00.751Z,9.85
2022-12-29T03:10:00.748Z,9.31
2022-12-29T03:15:00.893Z,10.08
2022-12-29T03:20:00.846Z,10.08
2022-12-29T03:25:00.766Z,10.37
2022-12-29T03:30:00.870Z,9.81
2022-12-29T03:35:00.668Z,9.81
2022-12-29T03:40:00.761Z,9.81
2022-12-29T03:45:00.912Z,10
2022-12-29T03:50:00.661Z,10
2022-12-29T03:55:00.974Z,10
2022-12-29T04:00:00.855Z,10
2022-12-29T04:05:03.407Z,10.09
2022-12-29T04:10:00.696Z,10.09
2022-12-29T04:15:00.877Z,10.09
2022-12-29T04:20:00.705Z,10.09
2022-12-29T04:25:00.846Z,10.09
2022-12-29T04:30:00.939Z,10.09
2022-12-29T04:35:00.849Z,10.61
2022-12-29T04:40:00.729Z,10.03
2022-12-29T04:45:00.875Z,10.03
2022-12-29T04:50:00.751Z,9.55
2022-12-29T04:55:00.830Z,9.55
2022-12-29T05:00:00.947Z,9.55
2022-12-29T05:05:03.767Z,10.08
2022-12-29T05:10:00.731Z,10.08
2022-12-29T05:15:00.854Z,10.08
2022-12-29T05:20:00.722Z,10.08
2022-12-29T05:25:00.869Z,10.08
2022-12-29T05:30:00.949Z,10.08
2022-12-29T05:35:00.821Z,9.79
2022-12-29T05:40:00.726Z,9.79
2022-12-29T05:45:00.951Z,9.79
2022-12-29T05:50:00.749Z,9.79
2022-12-29T05:55:00.811Z,9.79
2022-12-29T06:00:00.865Z,9.79
2022-12-29T06:05:03.456Z,9.79
2022-12-29T06:10:00.741Z,9.79
2022-12-29T06:15:00.900Z,9.79
2022-12-29T06:20:00.734Z,9.79
2022-12-29T06:25:04.913Z,9.79
2022-12-29T06:30:00.991Z,10.05
2022-12-29T06:35:00.706Z,10.05
2022-12-29T06:40:05.370Z,10.05
2022-12-29T06:45:00.928Z,10.05
2022-12-29T06:50:00.780Z,10.05
2022-12-29T06:55:00.696Z,10.05
2022-12-29T07:00:00.926Z,10.05
2022-12-29T07:05:00.716Z,10.05
2022-12-29T07:10:00.875Z,10.58
2022-12-29T07:15:00.893Z,10.58
2022-12-29T07:20:00.772Z,10.58
2022-12-29T07:25:00.717Z,10.58
2022-12-29T07:30:00.897Z,10.95
2022-12-29T07:35:00.733Z,10.95
2022-12-29T07:40:00.875Z,10.95
2022-12-29T07:45:00.978Z,10.95
2022-12-29T07:50:00.861Z,10.95
2022-12-29T07:55:00.751Z,10.95
2022-12-29T08:00:01.083Z,11.09
2022-12-29T08:05:00.711Z,11.09
2022-12-29T08:10:00.780Z,11.09
2022-12-29T08:15:00.871Z,11.09
2022-12-29T08:20:00.711Z,11.09
2022-12-29T08:25:00.774Z,11.6
2022-12-29T08:30:00.887Z,11.6
2022-12-29T08:35:00.717Z,11.6
2022-12-29T08:40:00.761Z,11.6
2022-12-29T08:45:00.936Z,11.6
2022-12-29T08:50:00.689Z,11.6
2022-12-29T08:55:00.857Z,11.6
2022-12-29T09:00:00.807Z,11.6
2022-12-29T09:05:03.273Z,11.6
2022-12-29T09:10:00.764Z,11.6
2022-12-29T09:15:00.904Z,11.6
2022-12-29T09:20:00.748Z,11.78
2022-12-29T09:25:00.786Z,11.78
2022-12-29T09:30:00.943Z,11.78
2022-12-29T09:35:00.711Z,11.78
2022-12-29T09:40:00.774Z,11.78
2022-12-29T09:45:00.952Z,11.78
2022-12-29T09:50:00.718Z,12.21
2022-12-29T09:55:05.331Z,12.21
2022-12-29T10:00:00.874Z,12.73
2022-12-29T10:05:04.491Z,12.73
2022-12-29T10:10:00.705Z,12.84
2022-12-29T10:15:00.899Z,12.63
2022-12-29T10:20:00.719Z,12.63
2022-12-29T10:25:00.797Z,12.63
2022-12-29T10:30:00.946Z,12.46
2022-12-29T10:35:00.727Z,12.46
2022-12-29T10:40:00.835Z,12.46
2022-12-29T10:45:00.873Z,12.87
2022-12-29T10:50:00.767Z,12.87
2022-12-29T10:55:00.690Z,12.87
2022-12-29T11:00:00.938Z,12.87
2022-12-29T11:05:00.795Z,12.87
2022-12-29T11:10:01.123Z,13.16
2022-12-29T11:15:01.077Z,13.38
2022-12-29T11:20:00.802Z,13.88
2022-12-29T11:25:00.762Z,13.88
2022-12-29T11:30:00.972Z,13.88
2022-12-29T11:35:00.729Z,13.88
2022-12-29T11:40:00.760Z,13.88
2022-12-29T11:45:03.164Z,13.38
2022-12-29T11:50:00.817Z,13.38
2022-12-29T12:00:00.775Z,13.38
2022-12-29T12:05:00.602Z,13.38
2022-12-29T12:10:07.455Z,13.63
2022-12-29T12:15:00.745Z,13.63
2022-12-29T12:20:00.751Z,13.63
2022-12-29T12:25:00.576Z,13.63
2022-12-29T12:30:00.776Z,13.14
2022-12-29T12:35:00.548Z,13.14
2022-12-29T12:40:00.589Z,13.14
2022-12-29T12:45:00.777Z,13.14
2022-12-29T12:50:00.599Z,13.14
2022-12-29T12:55:00.614Z,12.63
2022-12-29T13:00:00.678Z,12.63
2022-12-29T13:10:00.581Z,12.8
2022-12-29T13:15:00.764Z,12.8
2022-12-29T13:20:00.586Z,12.8
2022-12-29T13:25:00.616Z,12.8
2022-12-29T13:30:00.827Z,12.8
2022-12-29T13:35:00.596Z,12.8
2022-12-29T13:40:00.646Z,12.8
2022-12-29T13:45:00.899Z,12.8
2022-12-29T13:50:00.537Z,12.8
2022-12-29T13:55:00.619Z,12.8
2022-12-29T14:00:00.761Z,12.84
2022-12-29T14:05:00.590Z,13.14
2022-12-29T14:15:00.784Z,13.14
2022-12-29T14:20:00.616Z,13.14
2022-12-29T14:25:00.591Z,12.95
2022-12-29T14:30:00.842Z,12.95
2022-12-29T14:35:00.593Z,12.95
2022-12-29T14:40:00.602Z,12.95
2022-12-29T14:45:00.751Z,12.66
2022-12-29T14:55:00.892Z,12.83
2022-12-29T15:00:00.372Z,13.21
2022-12-29T15:05:03.636Z,12.67
2022-12-29T15:10:00.802Z,12.67
2022-12-29T15:15:00.435Z,12.16
2022-12-29T15:20:00.368Z,12.16
2022-12-29T15:25:00.521Z,11.64
2022-12-29T15:30:00.360Z,11.64
2022-12-29T15:35:00.412Z,11.13
2022-12-29T15:40:00.829Z,11.13
2022-12-29T15:45:10.232Z,11.13
2022-12-29T15:50:00.433Z,10.86
2022-12-29T15:55:00.778Z,10.86
2022-12-29T16:00:00.367Z,10.86
2022-12-29T16:05:17.833Z,10.61
2022-12-29T16:10:00.580Z,10.61
2022-12-29T16:15:00.435Z,10.64
2022-12-29T16:20:00.369Z,10.64
2022-12-29T16:30:00.627Z,10.64
2022-12-29T16:35:00.321Z,10.64
2022-12-29T16:40:00.515Z,10.57
2022-12-29T16:45:00.722Z,10.57
2022-12-29T16:50:00.481Z,10.57
2022-12-29T16:55:00.364Z,10.57
2022-12-29T17:00:00.902Z,10.57
2022-12-29T17:10:00.852Z,10.57
2022-12-29T17:15:00.590Z,10.57
2022-12-29T17:20:00.625Z,10.57
2022-12-29T17:25:00.434Z,10.57
2022-12-29T17:30:00.490Z,10.57
2022-12-29T17:35:00.335Z,10.51
2022-12-29T17:40:00.458Z,10.51
2022-12-29T17:45:00.349Z,10.51
2022-12-29T17:50:00.475Z,10.51
2022-12-29T17:55:00.495Z,10.51
2022-12-29T18:00:00.431Z,10.46
2022-12-29T18:05:00.339Z,10.46
2022-12-29T18:10:00.591Z,10.46
2022-12-29T18:15:00.311Z,10.46
2022-12-29T18:20:00.543Z,10.46
2022-12-29T18:25:00.502Z,10.46
2022-12-29T18:30:00.406Z,10.46
2022-12-29T18:35:00.304Z,10.44
2022-12-29T18:40:00.467Z,10.44
2022-12-29T18:45:00.360Z,10.44
2022-12-29T18:50:00.366Z,10.44
2022-12-29T18:55:00.504Z,10.44
2022-12-29T19:00:00.312Z,10.44
2022-12-29T19:05:07.922Z,10.44
2022-12-29T19:10:00.601Z,10.44
2022-12-29T19:15:00.395Z,10.44
2022-12-29T19:20:00.358Z,10.44
2022-12-29T19:25:00.665Z,10.44
2022-12-29T19:30:00.364Z,10.55
2022-12-29T19:35:00.370Z,10.55
2022-12-29T19:40:00.572Z,10.55
2022-12-29T19:45:00.337Z,10.55
2022-12-29T19:50:00.392Z,10.55
2022-12-29T19:55:00.484Z,10.74
2022-12-29T20:00:00.361Z,10.74
2022-12-29T20:05:03.285Z,10.74
2022-12-29T20:10:00.638Z,10.74
2022-12-29T20:15:00.457Z,10.74
2022-12-29T20:20:00.328Z,10.74
2022-12-29T20:25:34.440Z,10.4
2022-12-29T20:30:00.362Z,10.4
2022-12-29T20:35:00.364Z,10.4
2022-12-29T20:40:00.405Z,10.4
2022-12-29T20:45:00.502Z,10.4
2022-12-29T20:50:00.351Z,10.4
2022-12-29T20:55:00.573Z,10.4
2022-12-29T21:00:00.360Z,10.4
2022-12-29T21:05:23.320Z,10.4
2022-12-29T21:10:00.515Z,10.4
2022-12-29T21:15:00.629Z,10.24
2022-12-29T21:20:00.710Z,10.24
2022-12-29T21:25:00.534Z,10.24
2022-12-29T21:30:00.783Z,10.24
2022-12-29T21:35:00.634Z,10.24
2022-12-29T21:40:00.566Z,10.17
2022-12-29T21:45:00.515Z,10.17
2022-12-29T21:50:00.749Z,10.17
2022-12-29T21:55:00.514Z,10.17
2022-12-29T22:00:00.594Z,10.17
2022-12-29T22:05:03.328Z,10.17
2022-12-29T22:10:00.509Z,10.17
2022-12-29T22:15:00.658Z,10.24
2022-12-29T22:20:00.716Z,10.24
2022-12-29T22:25:00.623Z,10.24
2022-12-29T22:30:00.535Z,10.24
2022-12-29T22:35:07.246Z,10.24
2022-12-29T22:40:00.572Z,10.24
2022-12-29T22:45:00.662Z,10.24
2022-12-29T22:50:00.711Z,10.24
2022-12-29T22:55:06.496Z,10.24
2022-12-29T23:00:00.607Z,10.24
2022-12-29T23:05:07.015Z,10.46
2022-12-29T23:10:00.574Z,10.46
2022-12-29T23:15:00.713Z,10.3
2022-12-29T23:20:00.737Z,10.3
2022-12-29T23:25:00.716Z,10.3
2022-12-29T23:30:00.573Z,10.3
2022-12-29T23:35:00.767Z,9.93
2022-12-29T23:40:00.577Z,9.84
2022-12-29T23:45:00.634Z,9.84
2022-12-29T23:50:00.893Z,9.84
2022-12-29T23:55:00.587Z,9.72
